createdAt,value
2022-09-20T00:01:10.743Z,7.44
2022-09-20T00:03:43.267Z,7.53
2022-09-20T00:06:14.112Z,7.53
2022-09-20T00:08:42.941Z,7.53
2022-09-20T00:11:15.551Z,7.59
2022-09-20T00:13:45.602Z,7.58
2022-09-20T00:16:15.745Z,7.63
2022-09-20T00:18:45.090Z,7.67
2022-09-20T00:21:17.079Z,7.70
2022-09-20T00:23:45.495Z,7.76
2022-09-20T00:26:14.582Z,7.75
2022-09-20T00:28:44.011Z,7.68
2022-09-20T00:31:13.009Z,7.61
2022-09-20T00:33:58.920Z,7.57
2022-09-20T00:36:28.358Z,7.66
2022-09-20T00:38:57.350Z,7.67
2022-09-20T00:41:25.642Z,7.66
2022-09-20T00:43:54.273Z,7.58
2022-09-20T00:46:27.528Z,7.52
2022-09-20T00:48:59.374Z,7.49
2022-09-20T00:51:32.859Z,7.43
2022-09-20T00:54:05.177Z,7.37
2022-09-20T00:56:37.064Z,7.28
2022-09-20T00:59:10.816Z,7.27
2022-09-20T01:01:39.215Z,7.30
2022-09-20T01:04:07.334Z,7.32
2022-09-20T01:06:36.888Z,7.26
2022-09-20T01:09:07.571Z,7.15
2022-09-20T01:11:36.693Z,7.15
2022-09-20T01:14:04.750Z,7.08
2022-09-20T01:16:34.666Z,7.04
2022-09-20T01:19:10.911Z,7.00
2022-09-20T01:21:40.643Z,6.98
2022-09-20T01:24:19.262Z,6.92
2022-09-20T01:26:55.740Z,6.85
2022-09-20T01:29:39.964Z,6.74
2022-09-20T01:32:13.909Z,6.73
2022-09-20T01:34:47.766Z,6.61
2022-09-20T01:37:25.443Z,6.54
2022-09-20T01:40:04.331Z,6.47
2022-09-20T01:42:37.290Z,6.39
2022-09-20T01:45:15.851Z,6.40
2022-09-20T01:47:52.261Z,6.38
2022-09-20T01:50:30.654Z,6.34
2022-09-20T01:53:32.775Z,6.34
2022-09-20T01:56:33.901Z,6.37
2022-09-20T01:59:46.305Z,6.38
2022-09-20T02:02:37.092Z,6.39
2022-09-20T02:05:34.258Z,6.40
2022-09-20T02:08:14.907Z,6.39
2022-09-20T02:10:59.454Z,6.31
2022-09-20T02:13:31.513Z,6.25
2022-09-20T02:16:33.415Z,6.22
2022-09-20T02:19:37.057Z,6.18
2022-09-20T02:22:19.451Z,6.09
2022-09-20T02:24:54.254Z,6.08
2022-09-20T02:27:27.395Z,6.04
2022-09-20T02:30:07.878Z,6.05
2022-09-20T02:32:56.277Z,6.08
2022-09-20T02:35:36.660Z,6.06
2022-09-20T02:38:18.054Z,6.08
2022-09-20T02:41:11.395Z,6.08
2022-09-20T02:43:45.750Z,6.03
2022-09-20T02:46:21.956Z,5.99
2022-09-20T02:48:59.034Z,5.91
2022-09-20T02:51:36.358Z,5.87
2022-09-20T02:54:13.941Z,5.85
2022-09-20T02:56:47.755Z,5.84
2022-09-20T02:59:28.523Z,5.85
2022-09-20T03:02:07.892Z,5.87
2022-09-20T03:04:49.173Z,5.79
2022-09-20T03:07:31.033Z,5.71
2022-09-20T03:10:11.978Z,5.65
2022-09-20T03:12:56.070Z,5.72
2022-09-20T03:15:33.870Z,5.70
2022-09-20T03:18:09.144Z,5.79
2022-09-20T03:20:45.058Z,5.72
2022-09-20T03:23:35.174Z,5.67
2022-09-20T03:26:14.616Z,5.68
2022-09-20T03:28:56.120Z,5.66
2022-09-20T03:31:36.165Z,5.64
2022-09-20T03:34:20.150Z,5.58
2022-09-20T03:37:15.883Z,5.59
2022-09-20T03:40:16.770Z,5.58
2022-09-20T03:42:48.386Z,5.52
2022-09-20T03:45:37.759Z,5.48
2022-09-20T03:48:26.539Z,5.43
2022-09-20T03:51:18.465Z,5.43
2022-09-20T03:54:10.925Z,5.40
2022-09-20T03:57:07.152Z,5.42
2022-09-20T03:59:55.048Z,5.41
2022-09-20T04:02:45.783Z,5.41
2022-09-20T04:05:18.530Z,5.40
2022-09-20T04:08:01.658Z,5.37
2022-09-20T04:10:40.714Z,5.46
2022-09-20T04:13:21.509Z,5.56
2022-09-20T04:16:04.204Z,5.70
2022-09-20T04:18:38.977Z,5.81
2022-09-20T04:21:13.742Z,5.87
2022-09-20T04:23:51.677Z,5.92
2022-09-20T04:26:27.030Z,6.00
2022-09-20T04:29:02.357Z,6.05
2022-09-20T04:31:41.227Z,6.11
2022-09-20T04:34:17.999Z,6.20
2022-09-20T04:36:57.781Z,6.26
2022-09-20T04:39:36.601Z,6.32
2022-09-20T04:42:35.550Z,6.40
2022-09-20T04:45:22.644Z,6.49
2022-09-20T04:48:16.446Z,6.58
2022-09-20T04:51:20.266Z,6.61
2022-09-20T04:54:17.886Z,6.64
2022-09-20T04:57:10.867Z,6.71
2022-09-20T04:59:56.862Z,6.71
2022-09-20T05:02:46.825Z,6.69
2022-09-20T05:05:51.235Z,6.68
2022-09-20T05:08:41.337Z,6.75
2022-09-20T05:11:31.091Z,6.80
2022-09-20T05:14:17.274Z,6.88
2022-09-20T05:17:03.723Z,6.96
2022-09-20T05:19:45.236Z,7.02
2022-09-20T05:22:45.512Z,7.05
2022-09-20T05:25:34.578Z,7.09
2022-09-20T05:28:09.505Z,7.20
2022-09-20T05:30:43.423Z,7.25
2022-09-20T05:33:20.264Z,7.30
2022-09-20T05:36:02.001Z,7.36
2022-09-20T05:38:41.715Z,7.43
2022-09-20T05:41:18.869Z,7.42
2022-09-20T05:43:55.672Z,7.41
2022-09-20T05:46:35.787Z,7.42
2022-09-20T05:49:13.043Z,7.50
2022-09-20T05:52:06.595Z,7.57
2022-09-20T05:54:56.529Z,7.70
2022-09-20T05:57:37.861Z,7.79
2022-09-20T06:00:11.282Z,7.89
2022-09-20T06:02:48.828Z,7.97
2022-09-20T06:05:26.178Z,8.05
2022-09-20T06:08:12.150Z,8.15
2022-09-20T06:10:58.120Z,8.26
2022-09-20T06:13:42.693Z,8.36
2022-09-20T06:16:18.595Z,8.39
2022-09-20T06:18:56.412Z,8.42
2022-09-20T06:21:36.800Z,8.59
2022-09-20T06:24:18.031Z,8.72
2022-09-20T06:26:46.657Z,8.80
2022-09-20T06:29:15.279Z,8.86
2022-09-20T06:31:43.363Z,8.88
2022-09-20T06:34:14.229Z,9.02
2022-09-20T06:37:16.074Z,9.19
2022-09-20T06:40:12.485Z,9.29
2022-09-20T06:42:40.566Z,9.40
2022-09-20T06:45:08.987Z,9.42
2022-09-20T06:47:38.853Z,9.48
2022-09-20T06:50:07.608Z,9.57
2022-09-20T06:52:36.401Z,9.70
2022-09-20T06:55:07.345Z,9.78
2022-09-20T06:57:38.759Z,9.98
2022-09-20T07:00:11.327Z,10.21
2022-09-20T07:02:39.940Z,10.47
2022-09-20T07:05:12.303Z,10.79
2022-09-20T07:07:40.482Z,11.26
2022-09-20T07:10:10.572Z,12.12
2022-09-20T07:12:38.499Z,12.17
2022-09-20T07:15:07.197Z,11.93
2022-09-20T07:17:35.362Z,12.10
2022-09-20T07:20:03.990Z,12.06
2022-09-20T07:22:31.941Z,12.14
2022-09-20T07:25:02.289Z,12.03
2022-09-20T07:27:32.429Z,12.23
2022-09-20T07:30:00.464Z,12.22
2022-09-20T07:32:28.326Z,12.13
2022-09-20T07:34:56.973Z,12.28
2022-09-20T07:37:24.809Z,12.53
2022-09-20T07:39:53.019Z,13.05
2022-09-20T07:42:20.769Z,13.35
2022-09-20T07:44:50.821Z,13.38
2022-09-20T07:47:18.808Z,13.11
2022-09-20T07:49:46.495Z,13.03
2022-09-20T07:52:14.631Z,12.93
2022-09-20T07:54:42.430Z,12.73
2022-09-20T07:57:10.278Z,12.71
2022-09-20T07:59:38.216Z,12.78
2022-09-20T08:02:07.374Z,12.80
2022-09-20T08:04:35.329Z,13.10
2022-09-20T08:07:03.165Z,13.94
2022-09-20T08:09:30.968Z,14.67
2022-09-20T08:11:59.026Z,15.22
2022-09-20T08:14:26.865Z,15.61
2022-09-20T08:16:58.140Z,15.76
2022-09-20T08:19:27.534Z,16.44
2022-09-20T08:21:55.445Z,16.07
2022-09-20T08:24:25.917Z,15.44
2022-09-20T08:26:53.969Z,15.62
2022-09-20T08:29:21.638Z,15.53
2022-09-20T08:31:49.546Z,15.95
2022-09-20T08:34:17.751Z,17.18
2022-09-20T08:36:50.040Z,17.35
2022-09-20T08:42:14.906Z,17.23
2022-09-20T08:44:57.759Z,17.05
2022-09-20T08:47:28.869Z,16.99
2022-09-20T08:49:58.733Z,17.06
2022-09-20T08:52:36.291Z,17.45
2022-09-20T08:55:16.554Z,17.38
2022-09-20T08:57:48.955Z,17.79
2022-09-20T09:00:19.710Z,18.09
2022-09-20T09:02:48.991Z,17.91
2022-09-20T09:05:32.442Z,19.13
2022-09-20T09:08:07.469Z,20.48
2022-09-20T09:10:46.125Z,20.24
2022-09-20T09:13:25.672Z,19.61
2022-09-20T09:15:59.965Z,19.75
2022-09-20T09:18:34.923Z,19.80
2022-09-20T09:21:05.142Z,19.05
2022-09-20T09:23:42.175Z,19.42
2022-09-20T09:26:21.094Z,19.61
2022-09-20T09:29:09.672Z,20.02
2022-09-20T09:31:39.561Z,22.63
2022-09-20T09:34:24.332Z,23.43
2022-09-20T09:36:54.246Z,23.78
2022-09-20T09:39:28.642Z,23.04
2022-09-20T09:42:00.772Z,23.51
2022-09-20T09:44:30.514Z,23.74
2022-09-20T09:46:58.959Z,23.45
2022-09-20T09:49:29.956Z,22.14
2022-09-20T09:52:16.230Z,21.38
2022-09-20T09:54:50.727Z,21.34
2022-09-20T09:57:37.729Z,21.77
2022-09-20T10:00:22.354Z,20.81
2022-09-20T10:03:11.905Z,20.63
2022-09-20T10:05:48.872Z,22.57
2022-09-20T10:08:30.679Z,25.16
2022-09-20T10:11:12.553Z,26.68
2022-09-20T10:13:48.960Z,26.61
2022-09-20T10:16:30.017Z,26.58
2022-09-20T10:19:07.240Z,26.06
2022-09-20T10:21:48.729Z,25.25
2022-09-20T10:24:30.866Z,25.16
2022-09-20T10:27:13.410Z,25.89
2022-09-20T10:29:54.170Z,25.39
2022-09-20T10:32:34.340Z,24.78
2022-09-20T10:35:15.139Z,23.65
2022-09-20T10:37:53.810Z,23.64
2022-09-20T10:40:51.253Z,24.91
2022-09-20T10:43:40.235Z,23.76
2022-09-20T10:46:34.896Z,23.48
2022-09-20T10:49:23.625Z,22.84
2022-09-20T10:52:04.112Z,22.74
2022-09-20T10:54:46.461Z,22.21
2022-09-20T10:57:37.556Z,21.82
2022-09-20T11:00:21.079Z,23.17
2022-09-20T11:03:03.064Z,22.96
2022-09-20T11:05:41.338Z,22.57
2022-09-20T11:08:15.950Z,22.80
2022-09-20T11:10:50.781Z,23.29
2022-09-20T11:13:28.150Z,24.05
2022-09-20T11:16:06.713Z,23.37
2022-09-20T11:18:40.426Z,23.37
2022-09-20T11:21:16.484Z,23.37
2022-09-20T11:23:52.339Z,23.61
2022-09-20T11:26:29.158Z,23.73
2022-09-20T11:29:02.422Z,23.36
2022-09-20T11:31:37.863Z,24.14
2022-09-20T11:34:15.295Z,24.68
2022-09-20T11:36:52.202Z,23.43
2022-09-20T11:39:25.007Z,22.61
2022-09-20T11:41:56.685Z,22.10
2022-09-20T11:44:24.874Z,20.80
2022-09-20T11:47:00.393Z,20.79
2022-09-20T11:49:33.272Z,21.27
2022-09-20T11:52:28.672Z,21.47
2022-09-20T11:55:14.456Z,21.03
2022-09-20T11:57:42.567Z,21.69
2022-09-20T12:00:11.408Z,21.66
2022-09-20T12:02:45.965Z,21.31
2022-09-20T12:05:28.487Z,26.80
2022-09-20T12:07:59.052Z,31.96
2022-09-20T12:10:30.388Z,32.24
2022-09-20T12:13:00.544Z,35.48
2022-09-20T12:15:31.771Z,33.44
2022-09-20T12:18:19.518Z,32.84
2022-09-20T12:21:15.375Z,32.58
2022-09-20T12:23:45.795Z,31.04
2022-09-20T12:26:38.890Z,26.87
2022-09-20T12:29:52.914Z,30.07
2022-09-20T12:33:01.022Z,33.06
2022-09-20T12:36:00.453Z,32.79
2022-09-20T12:38:38.488Z,34.03
2022-09-20T12:41:10.547Z,36.78
2022-09-20T12:43:49.006Z,31.89
2022-09-20T12:46:29.119Z,27.20
2022-09-20T12:49:48.154Z,24.03
2022-09-20T12:52:57.296Z,21.36
2022-09-20T12:55:32.291Z,19.89
2022-09-20T12:58:03.700Z,19.04
2022-09-20T13:00:38.832Z,18.19
2022-09-20T13:03:27.034Z,17.83
2022-09-20T13:06:23.439Z,17.66
2022-09-20T13:08:56.793Z,17.22
2022-09-20T13:11:29.178Z,16.85
2022-09-20T13:13:59.508Z,16.51
2022-09-20T13:16:33.443Z,16.16
2022-09-20T13:19:05.544Z,16.05
2022-09-20T13:21:37.125Z,15.90
2022-09-20T13:24:06.156Z,15.76
2022-09-20T13:26:37.213Z,15.57
2022-09-20T13:29:08.042Z,15.46
2022-09-20T13:31:38.028Z,15.38
2022-09-20T13:34:20.061Z,15.39
2022-09-20T13:36:51.941Z,15.45
2022-09-20T13:39:31.992Z,15.29
2022-09-20T13:42:03.122Z,15.24
2022-09-20T13:44:34.238Z,15.40
2022-09-20T13:47:22.531Z,15.48
2022-09-20T13:49:50.670Z,15.74
2022-09-20T13:52:26.166Z,16.88
2022-09-20T13:54:55.272Z,16.91
2022-09-20T13:57:27.390Z,16.84
2022-09-20T13:59:58.016Z,16.79
2022-09-20T14:02:31.899Z,16.78
2022-09-20T14:05:01.719Z,17.09
2022-09-20T14:07:30.997Z,17.24
2022-09-20T14:10:00.083Z,17.57
2022-09-20T14:12:29.348Z,17.56
2022-09-20T14:14:57.904Z,17.63
2022-09-20T14:17:26.719Z,17.33
2022-09-20T14:19:57.566Z,17.28
2022-09-20T14:22:28.561Z,17.37
2022-09-20T14:24:59.845Z,17.12
2022-09-20T14:27:29.387Z,17.14
2022-09-20T14:29:57.489Z,17.23
2022-09-20T14:32:42.865Z,17.57
2022-09-20T14:35:18.974Z,17.64
2022-09-20T14:37:50.706Z,17.89
2022-09-20T14:40:24.145Z,18.13
2022-09-20T14:42:55.694Z,18.10
2022-09-20T14:45:26.946Z,18.16
2022-09-20T14:47:58.328Z,17.98
2022-09-20T14:50:30.290Z,17.99
2022-09-20T14:53:21.385Z,17.75
2022-09-20T14:56:07.687Z,17.56
2022-09-20T14:59:06.828Z,17.80
2022-09-20T15:01:36.437Z,17.81
2022-09-20T15:04:09.659Z,17.69
2022-09-20T15:06:39.857Z,17.32
2022-09-20T15:09:07.835Z,17.21
2022-09-20T15:11:35.753Z,17.03
2022-09-20T15:14:03.459Z,16.80
2022-09-20T15:16:31.514Z,16.82
2022-09-20T15:19:00.009Z,17.00
2022-09-20T15:21:27.880Z,17.08
2022-09-20T15:23:56.930Z,16.86
2022-09-20T15:26:24.758Z,16.85
2022-09-20T15:28:52.619Z,16.74
2022-09-20T15:31:21.008Z,16.58
2022-09-20T15:33:48.913Z,16.56
2022-09-20T15:36:17.004Z,16.52
2022-09-20T15:38:45.543Z,16.48
2022-09-20T15:41:14.684Z,16.47
2022-09-20T15:43:43.200Z,16.39
2022-09-20T15:46:19.524Z,16.17
2022-09-20T15:48:47.843Z,15.80
2022-09-20T15:51:16.094Z,15.73
2022-09-20T15:53:45.768Z,15.66
2022-09-20T15:56:19.261Z,15.56
2022-09-20T15:58:50.159Z,15.40
2022-09-20T16:01:19.822Z,15.36
2022-09-20T16:03:48.873Z,15.18
2022-09-20T16:06:16.682Z,15.01
2022-09-20T16:08:44.554Z,14.83
2022-09-20T16:11:14.334Z,14.67
2022-09-20T16:13:43.581Z,14.40
2022-09-20T16:16:13.990Z,14.16
2022-09-20T16:19:00.215Z,14.13
2022-09-20T16:21:28.602Z,13.90
2022-09-20T16:23:57.810Z,13.76
2022-09-20T16:26:27.814Z,13.68
2022-09-20T16:28:57.695Z,13.53
2022-09-20T16:31:36.535Z,13.47
2022-09-20T16:34:06.669Z,13.47
2022-09-20T16:36:34.986Z,13.44
2022-09-20T16:39:03.062Z,13.44
2022-09-20T16:41:31.940Z,13.49
2022-09-20T16:44:01.083Z,13.48
2022-09-20T16:46:31.220Z,13.47
2022-09-20T16:49:00.799Z,13.42
2022-09-20T16:51:33.024Z,13.41
2022-09-20T16:54:03.752Z,13.31
2022-09-20T16:56:33.806Z,13.21
2022-09-20T16:59:04.338Z,13.04
2022-09-20T17:01:32.702Z,12.84
2022-09-20T17:04:05.308Z,12.63
2022-09-20T17:06:35.197Z,12.42
2022-09-20T17:09:04.072Z,12.21
2022-09-20T17:11:35.102Z,12.06
2022-09-20T17:14:05.755Z,11.92
2022-09-20T17:16:35.694Z,11.83
2022-09-20T17:19:07.208Z,11.70
2022-09-20T17:21:37.032Z,11.60
2022-09-20T17:24:07.062Z,11.54
2022-09-20T17:26:37.624Z,11.53
2022-09-20T17:29:09.766Z,11.47
2022-09-20T17:31:41.447Z,11.41
2022-09-20T17:34:11.546Z,11.37
2022-09-20T17:36:42.169Z,11.31
2022-09-20T17:39:12.600Z,11.28
2022-09-20T17:41:41.410Z,11.24
2022-09-20T17:44:11.924Z,11.23
2022-09-20T17:46:41.119Z,11.25
2022-09-20T17:49:10.701Z,11.30
2022-09-20T17:51:40.834Z,11.24
2022-09-20T17:54:12.763Z,11.24
2022-09-20T17:56:42.570Z,11.23
2022-09-20T17:59:13.158Z,11.21
2022-09-20T18:01:41.705Z,11.22
2022-09-20T18:04:10.890Z,11.21
2022-09-20T18:06:42.083Z,11.19
2022-09-20T18:09:12.382Z,11.16
2022-09-20T18:11:42.072Z,11.13
2022-09-20T18:14:13.303Z,11.10
2022-09-20T18:16:43.080Z,11.06
2022-09-20T18:19:12.426Z,10.99
2022-09-20T18:21:40.880Z,10.91
2022-09-20T18:24:10.110Z,10.85
2022-09-20T18:26:39.154Z,10.79
2022-09-20T18:29:11.135Z,10.82
2022-09-20T18:31:42.934Z,10.78
2022-09-20T18:34:17.834Z,10.86
2022-09-20T18:36:48.305Z,10.83
2022-09-20T18:39:16.303Z,10.70
2022-09-20T18:41:44.765Z,10.72
2022-09-20T18:44:14.116Z,10.60
2022-09-20T18:46:43.457Z,10.52
2022-09-20T18:49:14.931Z,10.39
2022-09-20T18:51:43.761Z,10.29
2022-09-20T18:54:12.537Z,10.21
2022-09-20T18:56:42.543Z,10.04
2022-09-20T18:59:15.749Z,9.92
2022-09-20T19:02:13.251Z,9.76
2022-09-20T19:05:05.568Z,9.68
2022-09-20T19:07:43.926Z,9.58
2022-09-20T19:10:15.739Z,9.49
2022-09-20T19:12:49.372Z,9.38
2022-09-20T19:15:29.783Z,9.30
2022-09-20T19:18:13.353Z,9.27
2022-09-20T19:20:47.622Z,9.17
2022-09-20T19:23:37.294Z,9.11
2022-09-20T19:26:12.073Z,9.07
2022-09-20T19:28:42.463Z,9.06
2022-09-20T19:31:14.753Z,9.08
2022-09-20T19:33:46.891Z,9.03
2022-09-20T19:36:16.333Z,8.93
2022-09-20T19:38:49.746Z,8.93
2022-09-20T19:41:29.986Z,8.83
2022-09-20T19:44:11.040Z,8.68
2022-09-20T19:46:47.541Z,8.59
2022-09-20T19:49:24.081Z,8.49
2022-09-20T19:51:53.013Z,8.38
2022-09-20T19:54:21.434Z,8.33
2022-09-20T19:56:54.074Z,8.32
2022-09-20T19:59:23.938Z,8.32
2022-09-20T20:01:53.043Z,8.29
2022-09-20T20:04:23.051Z,8.30
2022-09-20T20:07:01.396Z,8.30
2022-09-20T20:09:41.159Z,8.20
2022-09-20T20:12:15.510Z,8.12
2022-09-20T20:14:54.291Z,8.02
2022-09-20T20:17:40.152Z,7.98
2022-09-20T20:20:24.033Z,7.94
2022-09-20T20:23:13.227Z,7.91
2022-09-20T20:25:48.859Z,7.88
2022-09-20T20:28:16.996Z,7.84
2022-09-20T20:30:57.860Z,7.78
2022-09-20T20:33:28.116Z,7.72
2022-09-20T20:35:59.499Z,7.73
2022-09-20T20:38:28.696Z,7.76
2022-09-20T20:41:03.952Z,7.67
2022-09-20T20:43:32.739Z,7.65
2022-09-20T20:46:00.747Z,7.63
2022-09-20T20:48:28.939Z,7.64
2022-09-20T20:51:02.520Z,7.61
2022-09-20T20:53:32.170Z,7.64
2022-09-20T20:56:02.204Z,7.63
2022-09-20T20:58:32.380Z,7.56
2022-09-20T21:01:08.383Z,7.50
2022-09-20T21:03:36.418Z,7.47
2022-09-20T21:06:06.073Z,7.56
2022-09-20T21:08:35.770Z,7.49
2022-09-20T21:11:05.561Z,7.42
2022-09-20T21:13:35.141Z,7.44
2022-09-20T21:16:07.175Z,7.39
2022-09-20T21:18:36.177Z,7.41
2022-09-20T21:21:13.416Z,7.40
2022-09-20T21:23:41.376Z,7.36
2022-09-20T21:26:12.381Z,7.31
2022-09-20T21:28:42.301Z,7.27
2022-09-20T21:31:12.688Z,7.22
2022-09-20T21:33:42.375Z,7.20
2022-09-20T21:36:13.822Z,7.21
2022-09-20T21:38:42.978Z,7.16
2022-09-20T21:41:12.556Z,7.17
2022-09-20T21:43:42.506Z,7.17
2022-09-20T21:46:13.883Z,7.13
2022-09-20T21:48:41.985Z,7.06
2022-09-20T21:51:13.663Z,7.01
2022-09-20T21:53:41.946Z,7.01
2022-09-20T21:56:11.776Z,6.98
2022-09-20T21:58:40.816Z,6.95
2022-09-20T22:01:11.178Z,7.16
2022-09-20T22:03:41.093Z,7.09
2022-09-20T22:06:13.225Z,7.02
2022-09-20T22:08:43.327Z,7.00
2022-09-20T22:11:15.053Z,6.98
2022-09-20T22:13:43.713Z,6.91
2022-09-20T22:16:13.555Z,6.90
2022-09-20T22:18:43.217Z,6.88
2022-09-20T22:21:14.180Z,6.83
2022-09-20T22:23:42.349Z,6.79
2022-09-20T22:26:12.073Z,6.75
2022-09-20T22:28:40.335Z,6.72
2022-09-20T22:31:09.911Z,6.67
2022-09-20T22:33:42.326Z,6.69
2022-09-20T22:36:14.016Z,6.73
2022-09-20T22:38:42.111Z,6.69
2022-09-20T22:41:10.917Z,6.72
2022-09-20T22:43:38.896Z,6.68
2022-09-20T22:46:07.592Z,6.60
2022-09-20T22:48:36.698Z,6.55
2022-09-20T22:51:06.513Z,6.53
2022-09-20T22:53:35.797Z,6.50
2022-09-20T22:56:08.180Z,6.49
2022-09-20T22:58:38.402Z,6.47
2022-09-20T23:01:07.885Z,6.42
2022-09-20T23:03:36.050Z,6.43
2022-09-20T23:06:04.028Z,6.38
2022-09-20T23:08:33.071Z,6.40
2022-09-20T23:11:04.376Z,6.33
2022-09-20T23:13:32.589Z,6.33
2022-09-20T23:16:00.264Z,6.38
2022-09-20T23:18:28.105Z,6.34
2022-09-20T23:21:00.776Z,6.43
2022-09-20T23:23:29.547Z,6.29
2022-09-20T23:26:07.228Z,6.29
2022-09-20T23:28:35.817Z,6.26
2022-09-20T23:31:05.993Z,6.29
2022-09-20T23:33:34.245Z,6.31
2022-09-20T23:36:03.384Z,6.20
2022-09-20T23:38:31.202Z,6.17
2022-09-20T23:41:03.802Z,6.11
2022-09-20T23:43:33.582Z,6.13
2022-09-20T23:46:01.798Z,6.11
2022-09-20T23:48:30.208Z,6.08
2022-09-20T23:50:58.083Z,6.07
2022-09-20T23:53:26.095Z,6.01
2022-09-20T23:55:54.052Z,5.94
2022-09-20T23:58:21.992Z,5.98
